Terminal Aerodrome Forecast
Issued by NWS

Home | Current Version | Previous Version | Text Only | Print | Product List | Glossary On
Versions: 1 2 3 4 5 6 7 8 9 10 11 12 13
875
FTUS45 KTFX 051744
TAFHLN
TAF
KHLN 051744Z 0518/0618 VRB05KT P6SM BKN200
     FM052300 27010KT P6SM VCSH FEW060 BKN100
      TEMPO 0523/0603 VRB15G30KT P6SM -TSRA SCT060CB BKN100
     FM060300 29015G25KT P6SM -SHRA BKN035
     FM060600 30010KT P6SM -SHRA BKN035
     FM061500 31010KT P6SM BKN040=

USA.gov is the U.S. government's official web portal to all federal, state and local government web resources and services.